Time;durP1;ratioP1;P1;durP2;ratioP2;P2;SDS_P1;SDS_P2;PMS_P1;PMS_P2;Temp;Humidity;BMP_temperature;BMP_pressure;BME280_temperature;BME280_humidity;BME280_pressure;Samples;Min_cycle;Max_cycle;Signal;HPM_P1;HPM_P2
2023/10/25 00:02:02;;;;;;;9.30;2.90;;;;;;;7.97;100.00;100173.41;4862618;29;20047;-75
2023/10/25 00:04:27;;;;;;;10.27;2.95;;;;;;;7.96;100.00;100174.34;4879377;29;20085;-75
2023/10/25 00:06:53;;;;;;;5.93;2.72;;;;;;;7.95;100.00;100164.66;4879222;29;20240;-75
2023/10/25 00:09:18;;;;;;;7.10;2.95;;;;;;;7.92;100.00;100172.66;4879402;29;20041;-75
2023/10/25 00:11:44;;;;;;;8.23;2.72;;;;;;;7.91;100.00;100167.41;4879051;29;20053;-75
2023/10/25 00:14:09;;;;;;;8.40;2.92;;;;;;;7.91;100.00;100168.28;4879366;29;20077;-75
2023/10/25 00:16:35;;;;;;;10.73;3.22;;;;;;;7.88;100.00;100160.44;4862484;29;20398;-75
2023/10/25 00:19:00;;;;;;;6.50;2.92;;;;;;;7.88;100.00;100157.78;4862462;29;20040;-75
2023/10/25 00:21:26;;;;;;;8.32;3.00;;;;;;;7.91;100.00;100156.84;4879157;29;20485;-75
2023/10/25 00:23:51;;;;;;;9.55;3.05;;;;;;;7.89;100.00;100148.16;4879061;29;20524;-75
2023/10/25 00:26:17;;;;;;;7.45;2.92;;;;;;;7.86;100.00;100150.81;4879199;29;20101;-75
2023/10/25 00:28:48;;;;;;;8.07;3.20;;;;;;;7.87;100.00;100147.31;4876116;29;20037;-75
2023/10/25 00:31:14;;;;;;;7.55;3.17;;;;;;;7.90;100.00;100144.59;4862019;29;20056;-75
2023/10/25 00:33:39;;;;;;;11.18;4.05;;;;;;;7.88;100.00;100149.88;4877134;29;20029;-75
2023/10/25 00:36:05;;;;;;;10.38;3.15;;;;;;;7.89;100.00;100161.31;4881380;29;20124;-75
2023/10/25 00:38:31;;;;;;;9.25;3.20;;;;;;;7.87;100.00;100153.44;4871750;29;20041;-75
2023/10/25 00:40:56;;;;;;;8.65;3.78;;;;;;;7.86;100.00;100164.00;4861668;29;20037;-75
2023/10/25 00:43:23;;;;;;;13.57;4.53;;;;;;;7.86;100.00;100174.53;4862111;29;20548;-75
2023/10/25 00:46:02;;;;;;;7.72;3.08;;;;;;;7.80;100.00;100164.16;4878527;29;20044;-75
2023/10/25 00:48:29;;;;;;;9.82;3.40;;;;;;;7.73;100.00;100163.41;4865787;29;20063;-75
2023/10/25 00:50:55;;;;;;;6.75;2.92;;;;;;;7.70;100.00;100161.69;4861657;29;20472;-75
2023/10/25 00:53:23;;;;;;;16.50;4.15;;;;;;;7.70;100.00;100163.47;4861707;29;20033;-75
2023/10/25 00:55:51;;;;;;;12.07;4.22;;;;;;;7.68;100.00;100160.00;4861590;29;20045;-75
2023/10/25 00:58:17;;;;;;;9.82;3.50;;;;;;;7.65;100.00;100160.94;4878268;29;20076;-75
2023/10/25 01:00:42;;;;;;;7.60;3.80;;;;;;;7.63;100.00;100160.09;4878454;29;20068;-75
2023/10/25 01:03:08;;;;;;;10.68;3.88;;;;;;;7.59;100.00;100150.53;4861567;29;20057;-75
2023/10/25 01:05:34;;;;;;;10.27;4.43;;;;;;;7.58;100.00;100150.56;4878292;29;20084;-75
2023/10/25 01:08:00;;;;;;;9.32;4.60;;;;;;;7.59;100.00;100144.38;4878386;29;20124;-75
2023/10/25 01:10:26;;;;;;;11.43;4.20;;;;;;;7.58;100.00;100147.91;4877957;29;20059;-75
2023/10/25 01:12:51;;;;;;;13.05;4.18;;;;;;;7.56;100.00;100137.41;4861838;29;20166;-75
2023/10/25 01:15:20;;;;;;;11.27;4.05;;;;;;;7.56;100.00;100136.53;4878344;29;20056;-75
2023/10/25 01:17:46;;;;;;;11.38;4.38;;;;;;;7.55;100.00;100143.56;4861529;29;20064;-75
2023/10/25 01:20:11;;;;;;;13.70;4.10;;;;;;;7.57;100.00;100138.25;4877975;29;20456;-75
2023/10/25 01:22:37;;;;;;;12.48;4.28;;;;;;;7.55;100.00;100130.41;4861210;29;20049;-75
2023/10/25 01:25:02;;;;;;;14.63;4.15;;;;;;;7.59;100.00;100140.00;4861434;29;20144;-75
2023/10/25 01:27:28;;;;;;;7.93;3.15;;;;;;;7.61;100.00;100129.41;4874860;29;20068;-75
2023/10/25 01:29:53;;;;;;;11.07;3.92;;;;;;;7.62;100.00;100120.63;4862110;29;20029;-75
2023/10/25 01:32:19;;;;;;;8.18;3.35;;;;;;;7.61;100.00;100117.09;4877526;29;20040;-75
2023/10/25 01:34:44;;;;;;;11.43;3.63;;;;;;;7.61;100.00;100117.09;4861272;29;20467;-75
2023/10/25 01:37:10;;;;;;;9.15;3.40;;;;;;;7.61;100.00;100111.81;4861630;29;20048;-75
2023/10/25 01:39:35;;;;;;;10.25;3.38;;;;;;;7.62;100.00;100105.66;4861119;29;20045;-75
2023/10/25 01:42:01;;;;;;;10.55;2.97;;;;;;;7.62;100.00;100105.66;4860652;29;20120;-75
2023/10/25 01:44:26;;;;;;;9.93;3.10;;;;;;;7.60;100.00;100103.97;4893949;29;20049;-75
2023/10/25 01:46:52;;;;;;;7.57;2.75;;;;;;;7.60;100.00;100101.31;4872416;29;20032;-75
2023/10/25 01:49:18;;;;;;;6.82;2.90;;;;;;;7.60;100.00;100102.19;4869361;29;20044;-75
2023/10/25 01:51:43;;;;;;;6.65;2.83;;;;;;;7.61;100.00;100100.41;4845526;29;20048;-75
2023/10/25 01:54:09;;;;;;;9.02;3.00;;;;;;;7.59;100.00;100095.19;4862693;29;20136;-75
2023/10/25 01:56:35;;;;;;;12.55;3.58;;;;;;;7.61;100.00;100088.09;4881602;29;20040;-75
2023/10/25 01:59:01;;;;;;;5.90;2.72;;;;;;;7.58;100.00;100080.28;4855598;29;20041;-75
2023/10/25 02:01:26;;;;;;;7.20;2.83;;;;;;;7.58;100.00;100079.41;4879497;29;20464;-75
2023/10/25 02:03:52;;;;;;;6.85;2.90;;;;;;;7.58;100.00;100082.03;4885726;29;20064;-75
2023/10/25 02:06:19;;;;;;;8.18;2.75;;;;;;;7.53;100.00;100079.50;4894559;29;20049;-75
2023/10/25 02:08:44;;;;;;;11.52;3.70;;;;;;;7.52;100.00;100072.50;4870938;29;20565;-75
2023/10/25 02:11:15;;;;;;;6.57;2.70;;;;;;;7.51;100.00;100074.25;4848212;29;20051;-75
2023/10/25 02:13:41;;;;;;;5.28;2.75;;;;;;;7.48;100.00;100069.06;4871697;29;20045;-74
2023/10/25 02:16:14;;;;;;;6.60;2.80;;;;;;;7.51;100.00;100079.53;4890649;29;20132;-75
2023/10/25 02:18:40;;;;;;;6.63;2.85;;;;;;;7.52;100.00;100064.59;4864255;29;20071;-75
2023/10/25 02:21:06;;;;;;;8.13;3.00;;;;;;;7.50;100.00;100064.63;4896273;29;20067;-75
2023/10/25 02:23:31;;;;;;;7.43;2.47;;;;;;;7.53;100.00;100066.34;4879463;29;20036;-75
2023/10/25 02:25:57;;;;;;;13.13;3.38;;;;;;;7.56;100.00;100066.25;4864312;29;20041;-75
2023/10/25 02:28:24;;;;;;;6.13;2.85;;;;;;;7.58;100.00;100059.19;4857756;29;20048;-75
2023/10/25 02:30:50;;;;;;;7.93;2.75;;;;;;;7.58;100.00;100064.47;4876632;29;20048;-74
2023/10/25 02:33:15;;;;;;;9.25;2.60;;;;;;;7.58;100.00;100059.19;4887772;29;20033;-75
2023/10/25 02:35:41;;;;;;;9.07;2.78;;;;;;;7.56;100.00;100044.31;4893166;29;20453;-75
2023/10/25 02:38:07;;;;;;;6.50;2.45;;;;;;;7.56;100.00;100046.94;4883697;29;20041;-75
2023/10/25 02:40:32;;;;;;;7.28;2.58;;;;;;;7.53;100.00;100046.13;4886719;29;20052;-75
2023/10/25 02:42:57;;;;;;;8.90;2.95;;;;;;;7.54;100.00;100049.59;4867499;29;20033;-75
2023/10/25 02:45:24;;;;;;;7.13;2.55;;;;;;;7.54;100.00;100047.88;4856545;29;20377;-75
2023/10/25 02:47:49;;;;;;;5.80;2.40;;;;;;;7.53;100.00;100034.72;4874405;29;20511;-74
2023/10/25 02:50:15;;;;;;;10.50;2.83;;;;;;;7.52;100.00;100036.50;4894597;29;20083;-75
2023/10/25 02:52:43;;;;;;;5.95;2.60;;;;;;;7.53;100.00;100026.81;4887722;29;20388;-75
2023/10/25 02:55:09;;;;;;;5.93;2.60;;;;;;;7.54;100.00;100031.16;4859276;29;20045;-75
2023/10/25 02:57:34;;;;;;;10.63;2.80;;;;;;;7.55;100.00;100022.38;4892414;29;20044;-75
2023/10/25 03:00:00;;;;;;;5.70;2.67;;;;;;;7.54;100.00;100023.25;4880579;29;20041;-75
2023/10/25 03:02:26;;;;;;;9.52;2.60;;;;;;;7.52;100.00;100014.56;4880386;29;20136;-75
2023/10/25 03:04:52;;;;;;;6.78;2.78;;;;;;;7.49;100.00;100018.13;4863865;29;20079;-74
2023/10/25 03:07:17;;;;;;;5.18;2.47;;;;;;;7.49;100.00;100019.88;4877017;29;20105;-75
2023/10/25 03:09:43;;;;;;;12.77;2.90;;;;;;;7.48;100.00;100015.50;4899121;29;20047;-74
2023/10/25 03:12:08;;;;;;;8.75;2.60;;;;;;;7.46;100.00;100009.41;4899207;29;20040;-74
2023/10/25 03:14:35;;;;;;;7.75;2.60;;;;;;;7.46;100.00;100006.78;4865011;29;20033;-75
2023/10/25 03:17:01;;;;;;;6.53;3.20;;;;;;;7.45;100.00;100005.06;4890018;29;20052;-74
2023/10/25 03:19:29;;;;;;;7.75;2.50;;;;;;;7.43;100.00;99998.94;4864343;29;20040;-74
2023/10/25 03:21:55;;;;;;;8.45;2.25;;;;;;;7.43;100.00;99994.53;4833205;29;20045;-74
2023/10/25 03:24:21;;;;;;;4.88;2.75;;;;;;;7.43;100.00;99994.53;4879619;29;20489;-75
2023/10/25 03:26:46;;;;;;;9.38;2.90;;;;;;;7.44;100.00;99998.03;4874001;29;20039;-74
2023/10/25 03:29:12;;;;;;;6.78;2.47;;;;;;;7.43;100.00;99985.78;4889800;29;20043;-74
2023/10/25 03:31:38;;;;;;;9.48;3.22;;;;;;;7.40;100.00;99984.06;4898580;29;20029;-74
2023/10/25 03:34:04;;;;;;;9.20;2.65;;;;;;;7.40;100.00;99986.72;4866616;29;20082;-74
2023/10/25 03:36:29;;;;;;;10.30;2.50;;;;;;;7.40;100.00;99984.06;4878433;29;20049;-74
2023/10/25 03:38:55;;;;;;;5.13;2.60;;;;;;;7.41;100.00;99982.31;4873596;29;20093;-74
2023/10/25 03:41:20;;;;;;;6.78;2.67;;;;;;;7.41;100.00;99987.56;4893377;29;20068;-74
2023/10/25 03:43:46;;;;;;;6.97;2.40;;;;;;;7.40;100.00;99980.59;4898644;29;20491;-74
2023/10/25 03:46:11;;;;;;;5.68;2.42;;;;;;;7.42;100.00;99984.03;4897949;29;20095;-74
2023/10/25 03:48:38;;;;;;;5.22;2.72;;;;;;;7.42;100.00;99970.84;4894126;29;20485;-74
2023/10/25 03:51:05;;;;;;;7.90;2.78;;;;;;;7.42;100.00;99976.13;4884246;29;20226;-74
2023/10/25 03:53:32;;;;;;;9.93;3.00;;;;;;;7.42;100.00;99961.19;4891869;29;20124;-74
2023/10/25 03:55:58;;;;;;;6.18;2.60;;;;;;;7.44;100.00;99964.69;4898292;29;20224;-74
2023/10/25 03:58:24;;;;;;;11.02;2.70;;;;;;;7.46;100.00;99956.72;4898380;29;20120;-74
2023/10/25 04:01:00;;;;;;;4.95;2.30;;;;;;;7.46;100.00;99957.56;4898221;29;20043;-74
2023/10/25 04:03:27;;;;;;;6.93;3.03;;;;;;;7.49;100.00;99962.81;4898047;29;20088;-74
2023/10/25 04:05:53;;;;;;;6.78;2.67;;;;;;;7.51;100.00;99960.09;4881154;29;20055;-74
2023/10/25 04:08:18;;;;;;;8.25;2.30;;;;;;;7.52;100.00;99964.50;4898216;29;20041;-74
2023/10/25 04:10:51;;;;;;;12.73;2.90;;;;;;;7.52;100.00;99960.09;4897890;29;20063;-74
2023/10/25 04:13:18;;;;;;;9.43;2.88;;;;;;;7.56;100.00;99949.47;4883867;29;20629;-74
2023/10/25 04:15:54;;;;;;;9.10;2.80;;;;;;;7.56;100.00;99952.09;4856992;29;20060;-74
2023/10/25 04:18:19;;;;;;;4.93;2.55;;;;;;;7.58;100.00;99950.31;4874112;29;20446;-74
2023/10/25 04:20:45;;;;;;;8.57;3.05;;;;;;;7.57;100.00;99951.19;4868537;29;20048;-74
2023/10/25 04:23:10;;;;;;;6.18;2.50;;;;;;;7.60;100.00;99952.00;4896927;29;20100;-74
2023/10/25 04:25:36;;;;;;;8.38;2.83;;;;;;;7.61;100.00;99950.22;4897852;29;20117;-74
2023/10/25 04:28:01;;;;;;;9.13;3.10;;;;;;;7.63;100.00;99951.06;4864714;29;20648;-74
2023/10/25 04:30:26;;;;;;;11.35;3.45;;;;;;;7.64;100.00;99947.50;4878962;29;20556;-74
2023/10/25 04:32:52;;;;;;;13.30;3.00;;;;;;;7.64;100.00;99956.31;4885887;29;20093;-74
2023/10/25 04:35:17;;;;;;;10.63;3.35;;;;;;;7.68;100.00;99949.16;4878747;29;20167;-74
2023/10/25 04:37:43;;;;;;;6.05;3.42;;;;;;;7.68;100.00;99944.75;4890974;29;20056;-74
2023/10/25 04:40:09;;;;;;;12.25;3.60;;;;;;;7.69;100.00;99946.50;4862844;29;20060;-74
2023/10/25 04:42:34;;;;;;;11.07;3.45;;;;;;;7.67;100.00;99939.56;4888862;29;20052;-74
2023/10/25 04:45:00;;;;;;;15.98;3.97;;;;;;;7.70;100.00;99947.38;4871094;29;20136;-74
2023/10/25 04:47:25;;;;;;;15.88;4.18;;;;;;;7.71;100.00;99938.56;4864969;29;20067;-74
2023/10/25 04:49:51;;;;;;;8.93;3.33;;;;;;;7.70;100.00;99935.06;4897256;29;20071;-74
2023/10/25 04:52:16;;;;;;;10.63;3.83;;;;;;;7.73;100.00;99934.13;4868203;29;20076;-74
2023/10/25 04:54:43;;;;;;;15.95;3.70;;;;;;;7.71;100.00;99922.75;4872282;29;20459;-74
2023/10/25 04:57:08;;;;;;;13.57;4.20;;;;;;;7.75;100.00;99921.78;4892352;29;20502;-74
2023/10/25 04:59:34;;;;;;;12.75;3.38;;;;;;;7.75;100.00;99917.34;4896585;29;20048;-74
2023/10/25 05:01:59;;;;;;;11.05;3.70;;;;;;;7.77;100.00;99922.59;4868584;29;20110;-74
2023/10/25 05:04:25;;;;;;;7.30;3.53;;;;;;;7.79;100.00;99915.53;4895724;29;20061;-74
2023/10/25 05:06:50;;;;;;;9.32;3.47;;;;;;;7.78;100.00;99905.00;4844991;29;20052;-74
2023/10/25 05:09:18;;;;;;;8.02;3.45;;;;;;;7.80;100.00;99896.16;4890965;29;20120;-74
2023/10/25 05:11:54;;;;;;;12.18;3.58;;;;;;;7.80;100.00;99901.44;4863597;29;20060;-74
2023/10/25 05:14:20;;;;;;;10.15;3.35;;;;;;;7.81;100.00;99889.13;4888169;29;20528;-74
2023/10/25 05:16:46;;;;;;;13.95;3.78;;;;;;;7.81;100.00;99887.34;4878167;29;20136;-74
2023/10/25 05:19:11;;;;;;;12.32;3.78;;;;;;;7.82;100.00;99888.22;4874841;29;20052;-74
2023/10/25 05:21:42;;;;;;;7.05;3.22;;;;;;;7.81;100.00;99876.78;4896665;29;20040;-74
2023/10/25 05:24:08;;;;;;;9.83;3.00;;;;;;;7.84;100.00;99874.09;4896928;29;20553;-74
2023/10/25 05:26:34;;;;;;;8.70;3.22;;;;;;;7.84;100.00;99873.22;4891933;29;20104;-74
2023/10/25 05:28:59;;;;;;;10.85;3.45;;;;;;;7.83;100.00;99863.59;4884382;29;20143;-74
2023/10/25 05:31:26;;;;;;;10.30;3.33;;;;;;;7.86;100.00;99863.50;4878027;29;20044;-74
2023/10/25 05:33:53;;;;;;;7.82;3.33;;;;;;;7.87;100.00;99866.09;4880069;29;20040;-74
2023/10/25 05:36:18;;;;;;;8.35;3.63;;;;;;;7.88;100.00;99864.31;4876676;29;20048;-74
2023/10/25 05:38:44;;;;;;;7.03;3.03;;;;;;;7.89;100.00;99860.81;4892086;29;20037;-74
2023/10/25 05:41:17;;;;;;;11.18;3.08;;;;;;;7.89;100.00;99855.53;4890316;29;20442;-74
2023/10/25 05:43:45;;;;;;;6.85;3.15;;;;;;;7.91;100.00;99861.59;4896784;29;20035;-74
2023/10/25 05:46:11;;;;;;;8.82;3.13;;;;;;;7.91;100.00;99853.69;4873082;29;20042;-74
2023/10/25 05:48:37;;;;;;;6.18;2.53;;;;;;;7.91;100.00;99853.69;4893989;29;20500;-74
2023/10/25 05:51:06;;;;;;;7.32;3.15;;;;;;;7.90;100.00;99851.97;4886559;29;20561;-74
2023/10/25 05:53:32;;;;;;;7.40;2.97;;;;;;;7.87;100.00;99850.28;4874041;29;20036;-74
2023/10/25 05:55:58;;;;;;;10.40;3.28;;;;;;;7.88;100.00;99845.88;4896057;29;20045;-74
2023/10/25 05:58:24;;;;;;;6.32;3.70;;;;;;;7.88;100.00;99844.09;4896635;29;20048;-74
2023/10/25 06:00:52;;;;;;;7.70;3.33;;;;;;;7.88;100.00;99833.56;4866382;29;20100;-74
2023/10/25 06:03:20;;;;;;;9.90;3.30;;;;;;;7.93;100.00;99836.06;4887773;29;20143;-74
2023/10/25 06:05:51;;;;;;;14.07;3.17;;;;;;;7.95;100.00;99829.00;4863257;29;20045;-74
2023/10/25 06:08:17;;;;;;;5.13;2.67;;;;;;;7.98;100.00;99834.16;4864062;29;20418;-74
2023/10/25 06:10:43;;;;;;;6.78;2.90;;;;;;;7.97;100.00;99829.81;4872018;29;20131;-74
2023/10/25 06:13:09;;;;;;;8.18;3.22;;;;;;;7.99;100.00;99835.91;4900189;29;20125;-74
2023/10/25 06:15:36;;;;;;;8.05;2.97;;;;;;;8.01;100.00;99827.94;4900176;29;20091;-74
2023/10/25 06:18:02;;;;;;;14.65;3.05;;;;;;;8.02;100.00;99833.19;4867614;29;20040;-74
2023/10/25 06:20:28;;;;;;;7.78;3.13;;;;;;;8.03;100.00;99831.41;4873190;29;20109;-74
2023/10/25 06:22:56;;;;;;;4.85;3.10;;;;;;;8.04;100.00;99836.66;4838674;29;20131;-74
2023/10/25 06:25:22;;;;;;;8.40;3.03;;;;;;;8.05;100.00;99825.19;4899753;29;20045;-74
2023/10/25 06:27:47;;;;;;;4.70;2.72;;;;;;;8.05;100.00;99830.47;4889316;29;20055;-74
2023/10/25 06:30:12;;;;;;;5.07;2.65;;;;;;;8.06;100.00;99818.13;4893110;29;20044;-74
2023/10/25 06:32:40;;;;;;;8.35;2.70;;;;;;;8.06;100.00;99818.13;4863605;29;20037;-74
2023/10/25 06:35:05;;;;;;;8.85;2.97;;;;;;;8.09;100.00;99813.66;4895574;29;20120;-74
2023/10/25 06:37:31;;;;;;;13.70;3.22;;;;;;;8.12;100.00;99812.72;4872463;29;20120;-74
2023/10/25 06:39:57;;;;;;;6.60;2.75;;;;;;;8.13;100.00;99812.66;4885644;29;20104;-74
2023/10/25 06:42:23;;;;;;;5.78;2.42;;;;;;;8.15;100.00;99807.34;4899676;29;20036;-74
2023/10/25 06:44:49;;;;;;;8.60;2.40;;;;;;;8.15;100.00;99805.56;4898482;29;20044;-74
2023/10/25 06:47:14;;;;;;;8.65;3.55;;;;;;;8.15;100.00;99799.44;4887595;29;20400;-74
2023/10/25 06:49:41;;;;;;;8.38;2.50;;;;;;;8.17;100.00;99793.19;4874882;29;20073;-74
2023/10/25 06:52:07;;;;;;;6.28;2.67;;;;;;;8.17;100.00;99787.94;4881448;29;20049;-74
2023/10/25 06:54:33;;;;;;;5.85;2.78;;;;;;;8.19;100.00;99785.25;4899642;29;20044;-74
2023/10/25 06:56:59;;;;;;;7.05;2.67;;;;;;;8.22;100.00;99777.25;4886883;29;20044;-74
2023/10/25 06:59:24;;;;;;;7.70;2.60;;;;;;;8.24;100.00;99775.44;4898852;29;20052;-74
2023/10/25 07:02:00;;;;;;;6.05;2.63;;;;;;;8.26;100.00;99775.38;4899301;29;20048;-74
2023/10/25 07:04:27;;;;;;;6.53;2.63;;;;;;;8.29;100.00;99772.66;4899208;29;20064;-74
2023/10/25 07:06:54;;;;;;;8.55;2.80;;;;;;;8.30;100.00;99755.91;4888815;29;20044;-74
2023/10/25 07:09:20;;;;;;;6.80;2.75;;;;;;;8.32;100.00;99760.22;4880437;29;20033;-74
2023/10/25 07:11:45;;;;;;;7.55;2.70;;;;;;;8.32;100.00;99754.09;4889061;29;20044;-74
2023/10/25 07:14:11;;;;;;;5.35;2.63;;;;;;;8.34;100.00;99757.56;4899322;29;20044;-74
2023/10/25 07:16:37;;;;;;;7.95;2.60;;;;;;;8.36;100.00;99751.34;4886069;29;20378;-74
2023/10/25 07:19:03;;;;;;;7.80;2.90;;;;;;;8.39;100.00;99753.00;4857439;29;20401;-74
2023/10/25 07:21:28;;;;;;;7.60;2.90;;;;;;;8.35;100.00;99744.31;4876088;29;20049;-74
2023/10/25 07:23:54;;;;;;;9.20;2.90;;;;;;;8.42;100.00;99742.38;4890592;29;20055;-74
2023/10/25 07:26:19;;;;;;;10.20;2.85;;;;;;;8.47;100.00;99737.84;4898755;29;20454;-74
2023/10/25 07:28:44;;;;;;;7.28;2.17;;;;;;;8.50;100.00;99731.59;4875457;29;20044;-74
2023/10/25 07:31:10;;;;;;;8.18;2.78;;;;;;;8.53;100.00;99734.13;4897731;29;20084;-74
2023/10/25 07:33:35;;;;;;;7.53;2.65;;;;;;;8.54;100.00;99725.31;4868985;29;20060;-74
2023/10/25 07:36:01;;;;;;;9.70;3.00;;;;;;;8.58;100.00;99727.81;4866458;29;20446;-74
2023/10/25 07:38:26;;;;;;;6.88;3.03;;;;;;;8.61;100.00;99727.72;4894955;29;20052;-74
2023/10/25 07:40:52;;;;;;;6.55;2.63;;;;;;;8.63;100.00;99730.31;4872998;29;20055;-74
2023/10/25 07:43:17;;;;;;;5.47;2.38;;;;;;;8.66;100.00;99730.22;4898510;29;20048;-74
2023/10/25 07:45:42;;;;;;;6.28;2.63;;;;;;;8.64;100.00;99724.13;4898250;29;20048;-74
2023/10/25 07:48:08;;;;;;;7.53;2.72;;;;;;;8.68;100.00;99733.69;4881663;29;20040;-74
2023/10/25 07:50:34;;;;;;;10.65;3.58;;;;;;;8.69;100.00;99721.34;4895996;29;20111;-74
2023/10/25 07:53:00;;;;;;;7.70;3.13;;;;;;;8.66;100.00;99713.53;4871265;29;20040;-74
2023/10/25 07:55:25;;;;;;;6.20;2.40;;;;;;;8.70;100.00;99710.72;4898287;29;20494;-75
2023/10/25 07:57:51;;;;;;;3.92;2.40;;;;;;;8.73;100.00;99712.38;4898428;29;20418;-75
2023/10/25 08:00:16;;;;;;;5.90;2.63;;;;;;;8.75;100.00;99706.19;4898201;29;20068;-75
2023/10/25 08:02:42;;;;;;;7.95;2.42;;;;;;;8.78;100.00;99706.06;4898025;29;20096;-76
2023/10/25 08:05:08;;;;;;;8.48;3.00;;;;;;;8.79;100.00;99686.66;4881354;29;20095;-76
2023/10/25 08:07:36;;;;;;;8.23;2.95;;;;;;;8.85;100.00;99688.22;4884932;29;20075;-76
2023/10/25 08:10:03;;;;;;;8.70;2.30;;;;;;;8.87;100.00;99682.91;4898189;29;20493;-76
2023/10/25 08:12:29;;;;;;;8.45;2.75;;;;;;;8.87;100.00;99681.13;4897779;29;20045;-76
2023/10/25 08:14:55;;;;;;;7.35;2.55;;;;;;;8.89;100.00;99681.94;4881323;29;20441;-76
2023/10/25 08:17:20;;;;;;;4.78;2.50;;;;;;;8.90;100.00;99673.13;4897956;29;20116;-75
2023/10/25 08:19:45;;;;;;;7.80;2.42;;;;;;;8.91;100.00;99664.28;4897899;29;20385;-75
2023/10/25 08:22:11;;;;;;;5.80;2.50;;;;;;;8.93;100.00;99662.44;4898027;29;20048;-75
2023/10/25 08:24:36;;;;;;;4.43;2.35;;;;;;;8.94;100.00;99658.03;4897746;29;20040;-75
2023/10/25 08:27:02;;;;;;;9.98;2.70;;;;;;;8.97;100.00;99660.56;4895746;29;20044;-75
2023/10/25 08:29:27;;;;;;;9.48;2.75;;;;;;;8.97;100.00;99650.84;4892158;29;20047;-75
2023/10/25 08:31:53;;;;;;;6.18;2.10;;;;;;;8.97;100.00;99650.84;4885338;29;20056;-75
2023/10/25 08:34:18;;;;;;;4.85;2.60;;;;;;;9.02;100.00;99648.06;4877924;29;20124;-75
2023/10/25 08:36:44;;;;;;;4.68;3.00;;;;;;;9.06;100.00;99648.84;4865703;29;20402;-75
2023/10/25 08:39:09;;;;;;;7.03;2.50;;;;;;;9.04;100.00;99643.59;4880416;29;20021;-75
2023/10/25 08:41:36;;;;;;;7.22;2.55;;;;;;;9.10;100.00;99643.41;4889454;29;20040;-75
2023/10/25 08:44:02;;;;;;;9.60;2.42;;;;;;;9.10;100.00;99642.50;4876583;29;20040;-75
2023/10/25 08:46:29;;;;;;;5.90;2.40;;;;;;;9.13;100.00;99638.00;4897442;29;20036;-75
2023/10/25 08:48:55;;;;;;;6.82;2.33;;;;;;;9.13;100.00;99635.34;4891139;29;20037;-75
2023/10/25 08:51:21;;;;;;;8.68;2.25;;;;;;;9.15;100.00;99627.34;4886799;29;20071;-75
2023/10/25 08:53:48;;;;;;;6.38;2.33;;;;;;;9.16;100.00;99622.03;4897508;29;20500;-75
2023/10/25 08:56:13;;;;;;;6.07;2.50;;;;;;;9.16;100.00;99624.69;4897213;29;20044;-75
2023/10/25 08:58:39;;;;;;;5.28;2.50;;;;;;;9.17;100.00;99620.25;4897412;29;20381;-74
2023/10/25 09:01:04;;;;;;;7.63;2.53;;;;;;;9.17;100.00;99612.31;4887632;29;20073;-75
2023/10/25 09:03:30;;;;;;;7.82;2.55;;;;;;;9.17;100.00;99615.84;4859868;29;20053;-75
2023/10/25 09:05:55;;;;;;;8.25;2.97;;;;;;;9.20;100.00;99617.53;4891660;29;20440;-75
2023/10/25 09:08:21;;;;;;;6.88;2.40;;;;;;;9.20;100.00;99612.25;4897207;29;20537;-76
2023/10/25 09:11:01;;;;;;;6.45;2.55;;;;;;;9.20;100.00;99602.53;4870925;29;20189;-76
2023/10/25 09:13:27;;;;;;;7.85;2.78;;;;;;;9.20;100.00;99607.81;4897216;29;20334;-76
2023/10/25 09:16:09;;;;;;;4.18;2.58;;;;;;;9.21;100.00;99601.59;4896963;29;20052;-77
2023/10/25 09:18:35;;;;;;;9.43;2.70;;;;;;;9.21;100.00;99608.66;4871717;29;20056;-78
2023/10/25 09:21:02;;;;;;;10.20;3.45;;;;;;;9.20;100.00;99594.59;4892309;29;20040;-78
2023/10/25 09:23:30;;;;;;;7.15;3.05;;;;;;;9.19;100.00;99587.56;4897144;29;20040;-78
2023/10/25 09:25:58;;;;;;;8.50;2.95;;;;;;;9.17;100.00;99580.63;4866991;29;20072;-78
2023/10/25 09:28:29;;;;;;;7.70;3.28;;;;;;;9.18;100.00;99585.00;4879027;29;20039;-78
2023/10/25 09:30:59;;;;;;;10.63;3.90;;;;;;;9.16;100.00;99569.22;4867932;29;20412;-78
2023/10/25 09:33:28;;;;;;;8.85;4.20;;;;;;;9.17;100.00;99575.34;4888160;29;20048;-78
2023/10/25 09:35:54;;;;;;;8.05;3.30;;;;;;;9.20;100.00;99575.25;4892865;29;20033;-78
2023/10/25 09:38:20;;;;;;;9.27;4.40;;;;;;;9.20;100.00;99564.69;4879993;29;20549;-78
2023/10/25 09:40:46;;;;;;;7.63;4.10;;;;;;;9.23;100.00;99577.78;4878058;29;20115;-78
2023/10/25 09:43:19;;;;;;;9.13;3.83;;;;;;;9.24;100.00;99582.13;4889418;29;20063;-78
2023/10/25 09:45:57;;;;;;;7.97;3.78;;;;;;;9.26;100.00;99572.38;4865048;29;20400;-78
2023/10/25 09:48:23;;;;;;;9.38;4.22;;;;;;;9.26;100.00;99575.88;4886129;29;20092;-79
2023/10/25 09:51:09;;;;;;;6.63;3.72;;;;;;;9.25;100.00;99560.09;4902433;29;20028;-79
2023/10/25 09:53:43;;;;;;;7.88;4.07;;;;;;;9.28;100.00;99551.19;4903013;29;20036;-79
2023/10/25 09:56:10;;;;;;;10.57;3.83;;;;;;;9.25;100.00;99541.59;4870221;29;20412;-79
2023/10/25 09:58:36;;;;;;;14.35;4.25;;;;;;;9.26;100.00;99533.59;4896211;29;20040;-78
2023/10/25 10:01:03;;;;;;;13.13;3.90;;;;;;;9.25;100.00;99528.41;4902621;29;20503;-78
2023/10/25 10:03:37;;;;;;;6.93;3.53;;;;;;;9.25;100.00;99529.25;4886010;29;20530;-77
2023/10/25 10:06:21;;;;;;;8.40;3.55;;;;;;;9.24;100.00;99522.22;4898840;29;20091;-77
2023/10/25 10:09:05;;;;;;;12.93;3.72;;;;;;;9.23;100.00;99515.25;4867377;29;20029;-77
2023/10/25 10:11:38;;;;;;;7.13;3.83;;;;;;;9.21;100.00;99518.84;4877423;29;20055;-78
2023/10/25 10:14:37;;;;;;;9.77;4.18;;;;;;;9.21;100.00;99506.50;4889814;29;20165;-78
2023/10/25 10:17:17;;;;;;;9.02;3.75;;;;;;;9.18;100.00;99513.69;4835236;29;20076;-79
2023/10/25 10:19:48;;;;;;;6.17;3.87;;;;;;;9.16;100.00;99510.25;4881374;29;20051;-78
2023/10/25 10:22:16;;;;;;;10.27;4.10;;;;;;;9.15;100.00;99496.19;4867186;29;20037;-78
2023/10/25 10:24:53;;;;;;;9.30;3.90;;;;;;;9.16;100.00;99489.97;4863980;29;20106;-77
2023/10/25 10:27:18;;;;;;;6.70;4.28;;;;;;;9.17;100.00;99488.19;4881332;29;20053;-77
2023/10/25 10:29:45;;;;;;;8.07;4.40;;;;;;;9.16;100.00;99475.91;4873663;29;20080;-78
2023/10/25 10:32:12;;;;;;;13.13;4.78;;;;;;;9.16;100.00;99466.19;4892064;29;20044;-78
2023/10/25 10:34:56;;;;;;;7.32;4.18;;;;;;;9.16;100.00;99462.72;4865955;29;20049;-78
2023/10/25 10:37:24;;;;;;;8.25;4.03;;;;;;;9.16;100.00;99454.78;4882091;29;20143;-78
2023/10/25 10:39:55;;;;;;;6.20;4.13;;;;;;;9.16;100.00;99457.44;4856928;29;20037;-78
2023/10/25 10:42:25;;;;;;;8.57;5.25;;;;;;;9.14;100.00;99443.41;4902514;29;20045;-77
2023/10/25 10:44:51;;;;;;;8.27;4.53;;;;;;;9.16;100.00;99446.84;4871502;29;20045;-77
2023/10/25 10:47:21;;;;;;;13.93;4.32;;;;;;;9.16;100.00;99441.56;4902902;29;20368;-77
2023/10/25 10:49:56;;;;;;;8.10;4.47;;;;;;;9.18;100.00;99434.47;4869886;29;20392;-78
2023/10/25 10:52:23;;;;;;;8.15;4.35;;;;;;;9.18;100.00;99431.81;4901664;29;20039;-77
2023/10/25 10:54:49;;;;;;;8.90;4.57;;;;;;;9.20;100.00;99420.28;4885691;29;20036;-77
2023/10/25 10:57:16;;;;;;;10.32;5.18;;;;;;;9.22;100.00;99418.44;4898358;29;20465;-77
2023/10/25 10:59:45;;;;;;;9.18;5.07;;;;;;;9.23;100.00;99417.50;4899506;29;20049;-77
2023/10/25 11:02:12;;;;;;;8.07;5.25;;;;;;;9.23;100.00;99406.09;4882121;29;20055;-77
2023/10/25 11:04:42;;;;;;;12.98;4.20;;;;;;;9.25;100.00;99409.53;4886634;29;20053;-77
2023/10/25 11:07:07;;;;;;;7.65;4.28;;;;;;;9.24;100.00;99408.66;4887117;29;20127;-77
2023/10/25 11:09:33;;;;;;;6.35;4.03;;;;;;;9.25;100.00;99396.31;4872180;29;20111;-76
2023/10/25 11:12:08;;;;;;;8.60;3.88;;;;;;;9.27;100.00;99391.81;4882245;29;20582;-76
2023/10/25 11:14:44;;;;;;;5.78;3.92;;;;;;;9.28;100.00;99380.34;4899203;29;20047;-76
2023/10/25 11:17:10;;;;;;;8.82;4.30;;;;;;;9.33;100.00;99380.16;4899197;29;20065;-76
2023/10/25 11:19:35;;;;;;;10.27;4.32;;;;;;;9.32;100.00;99379.31;4895732;29;20485;-76
2023/10/25 11:22:01;;;;;;;8.68;4.20;;;;;;;9.33;100.00;99369.59;4889182;29;20123;-76
2023/10/25 11:24:27;;;;;;;12.20;4.60;;;;;;;9.36;100.00;99364.19;4885866;29;20127;-75
2023/10/25 11:26:53;;;;;;;9.82;3.95;;;;;;;9.35;100.00;99362.47;4896040;29;20040;-75
2023/10/25 11:29:20;;;;;;;8.68;4.20;;;;;;;9.38;100.00;99357.06;4889090;29;20043;-75